Time;durP1;ratioP1;P1;durP2;ratioP2;P2;SDS_P1;SDS_P2;PMS_P1;PMS_P2;Temp;Humidity;BMP_temperature;BMP_pressure;BME280_temperature;BME280_humidity;BME280_pressure;Samples;Min_cycle;Max_cycle;Signal;HPM_P1;HPM_P2
2022/12/26 00:01:00;;;;;;;10.45;5.70;;;;;;;2.81;66.28;101468.38;1700168;83;21151;-58
2022/12/26 00:03:29;;;;;;;17.73;12.95;;;;;;;2.71;66.48;101472.57;1681556;83;21507;-58
2022/12/26 01:52:41;;;;;;;9.48;3.27;;;;;;;2.16;67.04;101474.99;1841817;75;22455;-59
2022/12/26 01:55:10;;;;;;;9.08;3.42;;;;;;;2.21;66.51;101476.17;1808340;77;21606;-59
2022/12/26 01:57:46;;;;;;;8.93;3.37;;;;;;;2.16;66.48;101474.99;1821737;77;21140;-59
2022/12/26 02:00:14;;;;;;;7.08;3.37;;;;;;;2.15;66.51;101481.52;1841963;77;20911;-59
2022/12/26 02:05:32;;;;;;;9.30;3.45;;;;;;;2.10;66.35;101475.60;1812747;77;20912;-59
2022/12/26 02:08:07;;;;;;;9.45;6.62;;;;;;;2.08;66.39;101472.20;1838054;77;20958;-59
2022/12/26 02:10:56;;;;;;;6.72;2.47;;;;;;;2.06;66.35;101474.00;1828522;77;20970;-59
2022/12/26 02:13:22;;;;;;;7.67;4.25;;;;;;;2.06;66.25;101470.11;1794009;77;21018;-59
2022/12/26 02:15:49;;;;;;;7.12;3.40;;;;;;;2.04;66.23;101464.50;1821708;78;21030;-59
2022/12/26 02:18:15;;;;;;;6.28;2.92;;;;;;;2.07;66.33;101471.79;1820705;77;21089;-59
2022/12/26 02:20:56;;;;;;;5.50;2.20;;;;;;;2.07;66.37;101475.69;1816187;77;21078;-59
2022/12/26 02:23:58;;;;;;;7.83;3.00;;;;;;;2.06;66.31;101472.25;1833523;77;21244;-59
2022/12/26 02:27:05;;;;;;;6.15;2.85;;;;;;;2.05;66.40;101479.61;1815296;77;21049;-59
2022/12/26 02:29:58;;;;;;;7.47;2.70;;;;;;;2.04;66.24;101481.37;1816335;77;21073;-58
2022/12/26 02:32:45;;;;;;;8.33;3.10;;;;;;;2.04;66.26;101480.53;1774211;78;21121;-59
2022/12/26 02:35:38;;;;;;;5.95;2.75;;;;;;;2.04;66.30;101472.28;1819606;77;21084;-58
2022/12/26 02:41:26;;;;;;;6.97;2.58;;;;;;;2.11;66.36;101476.86;1709444;82;21076;-54
2022/12/26 02:47:16;;;;;;;6.42;2.05;;;;;;;2.19;66.34;101464.98;1704443;82;21132;-55
2022/12/26 03:13:22;;;;;;;8.98;3.60;;;;;;;2.19;65.77;101453.30;1706799;82;20982;-53
2022/12/26 03:18:48;;;;;;;6.67;2.40;;;;;;;2.20;65.75;101452.38;1712713;82;21128;-54
2022/12/26 03:21:17;;;;;;;8.15;3.37;;;;;;;2.21;65.82;101454.09;1718157;82;21139;-56
2022/12/26 03:23:44;;;;;;;6.87;2.60;;;;;;;2.20;65.75;101454.55;1704834;82;21022;-53
2022/12/26 03:26:39;;;;;;;6.42;3.02;;;;;;;2.20;65.81;101460.17;1695689;82;21145;-55
2022/12/26 03:31:52;;;;;;;6.83;3.05;;;;;;;2.25;65.92;101449.66;1706754;82;21006;-55
2022/12/26 03:34:18;;;;;;;7.15;3.00;;;;;;;2.28;65.89;101455.62;1705047;82;22093;-54
2022/12/26 03:37:02;;;;;;;7.53;2.15;;;;;;;2.29;65.81;101455.19;1702259;84;21065;-54
2022/12/26 04:19:26;;;;;;;5.05;2.35;;;;;;;2.63;65.61;101488.84;1712057;81;21957;-55
2022/12/26 04:44:32;;;;;;;6.22;2.40;;;;;;;2.61;65.29;101495.83;1692657;84;21082;-57
2022/12/26 04:46:58;;;;;;;7.37;2.52;;;;;;;2.63;65.31;101491.43;1717053;82;21928;-56
2022/12/26 04:52:13;;;;;;;8.68;3.40;;;;;;;2.66;65.25;101491.80;1711486;81;21040;-56
2022/12/26 04:54:41;;;;;;;10.72;6.80;;;;;;;2.67;65.26;101498.23;1697617;82;21119;-55
2022/12/26 04:57:09;;;;;;;7.12;3.12;;;;;;;2.67;65.14;101499.98;1719511;81;21079;-55
2022/12/26 04:59:36;;;;;;;6.72;2.40;;;;;;;2.68;65.07;101500.41;1724744;81;21144;-55
2022/12/26 05:10:22;;;;;;;;;;;;;;;2.64;65.05;101513.94;1719518;83;21592;-56
2022/12/26 05:12:49;;;;;;;6.85;2.70;;;;;;;2.64;65.00;101523.03;1720252;82;21093;-54
2022/12/26 05:15:16;;;;;;;7.08;2.65;;;;;;;2.62;64.97;101520.91;1700215;81;21050;-55
2022/12/26 05:28:42;;;;;;;5.65;2.75;;;;;;;2.57;64.86;101543.14;1696396;82;21088;-53
2022/12/26 05:31:15;;;;;;;8.33;3.55;;;;;;;2.60;64.91;101549.52;1704156;81;21083;-53
2022/12/26 05:36:43;;;;;;;7.78;3.02;;;;;;;2.64;64.77;101551.62;1720570;81;21517;-54
2022/12/26 05:39:10;;;;;;;10.20;4.30;;;;;;;2.62;64.63;101554.68;1698627;81;21873;-54
2022/12/26 05:41:36;;;;;;;8.00;3.08;;;;;;;2.62;64.75;101555.98;1723328;81;21666;-54
2022/12/26 05:44:04;;;;;;;6.08;2.95;;;;;;;2.65;64.70;101555.91;1726098;81;21237;-55
2022/12/26 05:46:30;;;;;;;7.33;2.87;;;;;;;2.66;64.62;101564.11;1721032;82;21031;-54
2022/12/26 05:48:57;;;;;;;7.92;3.45;;;;;;;2.68;64.52;101555.81;1728940;81;21130;-54
2022/12/26 05:54:23;;;;;;;9.63;3.22;;;;;;;2.49;65.46;101542.92;1795431;77;22347;-60
2022/12/26 05:56:49;;;;;;;7.80;2.90;;;;;;;2.67;64.74;101555.41;1767835;80;21042;-60
2022/12/26 05:59:16;;;;;;;7.80;2.90;;;;;;;2.75;64.51;101552.60;1773365;79;21232;-60
2022/12/26 06:01:43;;;;;;;6.80;2.92;;;;;;;2.73;64.44;101548.74;1779159;80;20939;-60
2022/12/26 06:04:09;;;;;;;9.55;3.60;;;;;;;2.73;64.40;101551.34;1774397;80;21337;-60
2022/12/26 06:06:36;;;;;;;9.13;3.67;;;;;;;2.72;64.36;101541.86;1753726;80;21531;-60
2022/12/26 06:09:04;;;;;;;7.87;3.37;;;;;;;2.71;64.43;101547.94;1770443;79;21070;-60
2022/12/26 06:11:31;;;;;;;8.25;3.67;;;;;;;2.72;64.49;101547.48;1770308;79;21890;-60
2022/12/26 06:13:58;;;;;;;7.75;3.37;;;;;;;2.71;64.46;101541.44;1766683;78;21029;-60
2022/12/26 06:16:26;;;;;;;7.85;3.67;;;;;;;2.71;64.42;101546.64;1773737;79;20986;-60
2022/12/26 06:18:55;;;;;;;15.25;4.00;;;;;;;2.70;64.45;101542.78;1772320;79;20948;-60
2022/12/26 06:21:22;;;;;;;11.05;6.37;;;;;;;2.69;64.57;101541.94;1747606;80;21921;-60
2022/12/26 06:23:49;;;;;;;8.60;3.40;;;;;;;2.68;64.60;101541.53;1767047;78;22084;-59
2022/12/26 06:26:15;;;;;;;8.68;2.65;;;;;;;2.71;64.57;101545.80;1766059;78;21097;-60
2022/12/26 06:28:42;;;;;;;6.80;2.22;;;;;;;2.80;64.49;101545.52;1786019;80;21530;-60
2022/12/26 06:31:19;;;;;;;5.22;2.30;;;;;;;2.87;64.36;101548.34;1779280;79;21200;-60
2022/12/26 06:33:46;;;;;;;12.43;6.70;;;;;;;2.91;64.31;101540.87;1780631;80;20986;-60
2022/12/26 06:36:15;;;;;;;6.78;2.83;;;;;;;2.91;64.32;101532.23;1782167;79;21274;-60
2022/12/26 06:38:42;;;;;;;7.28;2.92;;;;;;;2.92;64.41;101536.51;1766438;80;20998;-59
2022/12/26 06:41:11;;;;;;;9.25;3.20;;;;;;;2.95;64.43;101532.06;1777206;80;20934;-60
2022/12/26 06:43:37;;;;;;;8.30;3.17;;;;;;;2.94;64.37;101536.01;1779459;78;20884;-60
2022/12/26 06:46:05;;;;;;;9.78;6.83;;;;;;;2.91;64.28;101541.33;1773240;80;20991;-59
2022/12/26 06:48:32;;;;;;;5.05;2.25;;;;;;;2.90;64.29;101543.05;1777308;80;21123;-60
2022/12/26 06:51:10;;;;;;;6.15;3.20;;;;;;;2.92;64.18;101535.21;1776556;78;21102;-60
2022/12/26 06:53:37;;;;;;;7.25;2.98;;;;;;;2.86;64.02;101533.66;1762254;80;21467;-59
2022/12/26 06:56:09;;;;;;;7.00;3.42;;;;;;;2.85;63.93;101530.64;1759453;80;21701;-60
2022/12/26 06:58:35;;;;;;;8.35;3.45;;;;;;;2.82;64.04;101537.22;1754069;80;20991;-62
2022/12/26 07:01:09;;;;;;;5.75;2.62;;;;;;;2.82;64.02;101537.68;1759446;79;21260;-61
2022/12/26 07:03:36;;;;;;;5.67;2.62;;;;;;;2.83;64.02;101535.50;1754594;80;21094;-60
2022/12/26 07:06:08;;;;;;;6.45;3.12;;;;;;;2.82;63.79;101535.92;1760350;80;21047;-60
2022/12/26 07:08:35;;;;;;;6.70;3.27;;;;;;;2.79;63.69;101536.00;1754359;80;21121;-59
2022/12/26 07:11:01;;;;;;;6.25;3.25;;;;;;;2.79;63.82;101531.68;1756007;79;21069;-59
2022/12/26 07:13:28;;;;;;;6.62;2.95;;;;;;;2.78;63.95;101522.63;1764726;80;21582;-59
2022/12/26 07:15:59;;;;;;;8.03;3.35;;;;;;;2.83;63.94;101521.20;1749243;80;21043;-58
2022/12/26 07:18:26;;;;;;;7.45;3.70;;;;;;;2.83;63.84;101519.90;1758660;79;21000;-61
2022/12/26 07:20:53;;;;;;;10.32;3.40;;;;;;;2.82;63.69;101517.72;1771221;80;21027;-60
2022/12/26 07:23:19;;;;;;;9.30;6.22;;;;;;;2.82;63.76;101514.28;1744736;80;21498;-59
2022/12/26 07:25:47;;;;;;;9.33;3.87;;;;;;;2.84;63.74;101509.88;1763436;80;21248;-60
2022/12/26 07:28:14;;;;;;;9.98;6.22;;;;;;;2.84;63.58;101509.45;1770880;80;21618;-61
2022/12/26 07:30:48;;;;;;;12.18;6.58;;;;;;;2.86;63.69;101513.28;1768033;80;21519;-59
2022/12/26 07:33:15;;;;;;;7.28;3.22;;;;;;;2.88;63.53;101507.61;1765902;80;21043;-59
2022/12/26 07:35:42;;;;;;;7.83;3.05;;;;;;;2.89;63.54;101513.20;1753102;79;21443;-59
2022/12/26 07:38:09;;;;;;;9.35;4.22;;;;;;;2.91;63.40;101515.33;1767088;80;22546;-59
2022/12/26 07:40:36;;;;;;;8.65;3.95;;;;;;;2.91;63.64;101516.17;1759750;80;21015;-59
2022/12/26 07:43:02;;;;;;;10.25;6.62;;;;;;;2.96;63.54;101504.34;1753806;80;21035;-59
2022/12/26 07:45:30;;;;;;;7.28;3.30;;;;;;;2.94;63.57;101510.88;1753028;80;21043;-59
2022/12/26 07:47:57;;;;;;;6.97;2.98;;;;;;;3.00;63.43;101505.94;1764294;80;21540;-59
2022/12/26 07:50:24;;;;;;;6.75;2.12;;;;;;;3.06;63.08;101513.98;1764429;80;22195;-60
2022/12/26 07:52:53;;;;;;;8.78;6.62;;;;;;;3.10;62.77;101511.25;1755516;79;21047;-60
2022/12/26 07:55:19;;;;;;;8.13;2.50;;;;;;;3.15;62.81;101511.12;1749634;80;21583;-60
2022/12/26 07:57:51;;;;;;;8.28;3.85;;;;;;;3.15;62.93;101508.52;1757025;80;21673;-61
2022/12/26 08:00:18;;;;;;;12.18;6.55;;;;;;;3.17;62.84;101513.22;1750861;80;21540;-60
2022/12/26 08:02:49;;;;;;;10.88;3.98;;;;;;;3.15;62.79;101518.92;1754269;79;21135;-60
2022/12/26 08:05:19;;;;;;;7.83;3.27;;;;;;;3.15;62.73;101514.56;1714724;82;21486;-60
2022/12/26 08:07:47;;;;;;;9.58;3.80;;;;;;;3.15;62.60;101516.31;1756704;80;21557;-64
2022/12/26 08:10:15;;;;;;;9.03;4.53;;;;;;;3.14;62.58;101512.88;1755682;79;21058;-59
2022/12/26 08:12:42;;;;;;;13.70;7.72;;;;;;;3.18;62.58;101504.95;1763300;80;21607;-59
2022/12/26 08:15:11;;;;;;;8.80;3.05;;;;;;;3.20;62.59;101514.42;1772418;80;21224;-60
2022/12/26 08:17:38;;;;;;;11.85;4.45;;;;;;;3.23;62.47;101514.34;1759473;80;21021;-60
2022/12/26 08:20:06;;;;;;;8.35;3.33;;;;;;;3.24;62.33;101521.68;1761320;80;21028;-59
2022/12/26 08:22:32;;;;;;;7.62;3.50;;;;;;;3.19;62.17;101515.77;1760773;80;21075;-61
2022/12/26 08:24:59;;;;;;;7.15;3.95;;;;;;;3.15;62.26;101522.36;1756799;79;21033;-61
2022/12/26 08:27:26;;;;;;;8.20;3.58;;;;;;;3.11;62.39;101516.87;1771635;79;21862;-59
2022/12/26 08:29:52;;;;;;;8.30;4.35;;;;;;;3.14;62.50;101513.30;1756164;80;21015;-59
2022/12/26 08:32:19;;;;;;;9.00;3.60;;;;;;;3.14;62.46;101509.41;1757862;80;21043;-60
2022/12/26 08:34:45;;;;;;;12.07;6.97;;;;;;;3.14;62.40;101510.70;1757272;79;21060;-62
2022/12/26 08:37:12;;;;;;;7.12;2.80;;;;;;;3.14;62.45;101518.08;1762590;80;21074;-61
2022/12/26 08:39:38;;;;;;;10.70;7.08;;;;;;;3.13;62.35;101517.66;1748941;80;21243;-61
2022/12/26 08:42:05;;;;;;;9.83;4.03;;;;;;;3.08;62.44;101513.52;1762494;79;21500;-61
2022/12/26 08:44:34;;;;;;;7.55;2.65;;;;;;;3.06;62.64;101516.16;1755989;80;21107;-61
2022/12/26 08:47:01;;;;;;;10.05;6.33;;;;;;;3.12;62.70;101522.91;1761065;80;21863;-60
2022/12/26 08:49:27;;;;;;;7.80;2.72;;;;;;;3.14;62.64;101514.17;1756343;80;21573;-60
2022/12/26 08:51:54;;;;;;;9.65;5.00;;;;;;;3.16;62.55;101509.77;1754157;80;22022;-62
2022/12/26 08:54:21;;;;;;;8.40;3.85;;;;;;;3.19;62.53;101502.77;1761056;80;21522;-61
2022/12/26 08:56:47;;;;;;;14.20;7.55;;;;;;;3.26;62.58;101508.16;1767843;80;21058;-61
2022/12/26 08:59:14;;;;;;;7.78;3.67;;;;;;;3.29;62.46;101505.02;1761332;79;21786;-61
2022/12/26 09:01:40;;;;;;;8.55;3.35;;;;;;;3.31;62.38;101506.27;1770228;79;21110;-61
2022/12/26 09:04:07;;;;;;;8.40;4.03;;;;;;;3.35;62.18;101510.49;1766558;79;21270;-61
2022/12/26 09:06:36;;;;;;;8.28;3.87;;;;;;;3.32;62.20;101503.63;1771597;80;21071;-61
2022/12/26 09:09:04;;;;;;;9.08;4.22;;;;;;;3.32;62.25;101504.08;1772332;80;21031;-60
2022/12/26 09:11:32;;;;;;;8.63;4.10;;;;;;;3.31;62.29;101501.06;1770382;80;21085;-61
2022/12/26 09:14:00;;;;;;;8.90;3.90;;;;;;;3.34;62.30;101501.81;1766816;80;21004;-61
2022/12/26 09:16:37;;;;;;;9.43;3.60;;;;;;;3.37;62.37;101499.58;1765874;79;21249;-61
2022/12/26 09:19:04;;;;;;;8.00;4.83;;;;;;;3.39;62.29;101495.63;1766999;80;21066;-61
2022/12/26 09:21:31;;;;;;;7.28;4.67;;;;;;;3.41;62.27;101497.73;1758722;80;21074;-61
2022/12/26 09:24:01;;;;;;;10.50;4.10;;;;;;;3.39;62.23;101495.17;1759954;79;21074;-61
2022/12/26 09:26:28;;;;;;;13.28;4.53;;;;;;;3.40;62.18;101499.48;1764769;80;21074;-61
2022/12/26 09:28:55;;;;;;;9.90;4.62;;;;;;;3.37;62.24;101487.87;1763271;80;21717;-61
2022/12/26 09:31:24;;;;;;;12.70;8.15;;;;;;;3.37;62.20;101486.58;1760808;80;21030;-63
2022/12/26 09:33:52;;;;;;;7.10;3.40;;;;;;;3.35;62.26;101477.52;1758920;79;21087;-59
2022/12/26 09:36:28;;;;;;;13.30;8.65;;;;;;;3.37;62.34;101475.33;1763179;80;21027;-61
2022/12/26 09:38:55;;;;;;;;;;;;;;;3.40;62.25;101466.97;1764978;80;21315;-60
2022/12/26 09:41:56;;;;;;;7.83;3.10;;;;;;;3.46;62.21;101461.57;1767051;80;21158;-60
2022/12/26 09:44:34;;;;;;;8.90;3.55;;;;;;;3.52;62.19;101457.44;1765588;80;21113;-59
2022/12/26 09:47:31;;;;;;;11.70;8.33;;;;;;;3.61;62.35;101456.73;1766648;80;21054;-60
2022/12/26 09:50:10;;;;;;;10.18;5.03;;;;;;;3.65;62.36;101453.98;1764283;79;21059;-59
2022/12/26 09:52:46;;;;;;;9.88;4.53;;;;;;;3.70;62.14;101455.98;1760930;80;20995;-59
2022/12/26 09:55:45;;;;;;;8.73;3.50;;;;;;;3.68;61.92;101458.22;1759984;80;21269;-60
2022/12/26 09:58:31;;;;;;;9.95;4.35;;;;;;;3.68;61.87;101457.80;1756852;79;21027;-59
2022/12/26 10:01:19;;;;;;;10.30;5.42;;;;;;;3.64;61.76;101460.55;1748082;80;21039;-57
2022/12/26 10:03:55;;;;;;;10.63;4.20;;;;;;;3.61;61.77;101456.28;1765617;79;21546;-60
2022/12/26 10:06:31;;;;;;;9.78;4.70;;;;;;;3.56;61.68;101456.88;1766173;79;21054;-60
2022/12/26 10:09:20;;;;;;;9.73;5.15;;;;;;;3.53;61.78;101453.08;1755184;79;21174;-61
2022/12/26 10:12:26;;;;;;;11.08;4.70;;;;;;;3.47;61.84;101458.05;1751542;80;21074;-62
2022/12/26 10:17:43;;;;;;;9.65;4.03;;;;;;;3.32;62.21;101443.78;1793898;78;23510;-59
2022/12/26 10:20:22;;;;;;;9.15;4.22;;;;;;;3.40;61.94;101452.66;1776411;80;20955;-60
2022/12/26 10:23:21;;;;;;;10.58;4.53;;;;;;;3.43;61.85;101452.56;1767881;80;21141;-60
2022/12/26 10:26:02;;;;;;;12.60;5.55;;;;;;;3.44;61.77;101454.23;1762456;80;21459;-60
2022/12/26 10:28:54;;;;;;;12.65;5.37;;;;;;;3.38;61.66;101459.67;1770374;80;21049;-60
2022/12/26 10:31:41;;;;;;;10.20;5.80;;;;;;;3.32;61.57;101462.00;1767764;80;21045;-61
2022/12/26 10:34:28;;;;;;;14.63;8.55;;;;;;;3.30;61.49;101450.80;1763905;80;21033;-62
2022/12/26 10:37:13;;;;;;;9.13;3.87;;;;;;;3.25;61.74;101448.80;1764704;80;22220;-62
2022/12/26 10:48:21;;;;;;;13.90;8.83;;;;;;;3.29;62.15;101426.13;1770999;80;21141;-62
2022/12/26 10:50:48;;;;;;;7.62;3.05;;;;;;;3.28;62.11;101420.55;1774830;79;21030;-62
2022/12/26 10:53:15;;;;;;;7.70;3.10;;;;;;;3.29;62.11;101416.56;1778048;79;21136;-60
2022/12/26 10:55:42;;;;;;;8.73;4.05;;;;;;;3.35;61.91;101411.17;1769609;79;21046;-63
2022/12/26 10:58:30;;;;;;;8.58;3.72;;;;;;;3.47;61.96;101412.51;1786207;78;21032;-64
2022/12/26 11:01:19;;;;;;;8.68;3.58;;;;;;;3.55;61.89;101414.86;1774247;78;21007;-63
2022/12/26 11:03:55;;;;;;;7.40;3.83;;;;;;;3.62;61.83;101418.11;1771200;80;21098;-62
2022/12/26 11:06:29;;;;;;;12.23;7.47;;;;;;;3.66;61.54;101423.13;1770058;80;21754;-63
2022/12/26 11:08:55;;;;;;;13.43;8.43;;;;;;;3.68;61.43;101420.48;1773175;78;21031;-59
2022/12/26 11:11:26;;;;;;;7.72;3.67;;;;;;;3.72;61.34;101412.98;1765716;80;21082;-58
2022/12/26 11:13:58;;;;;;;7.70;3.65;;;;;;;3.75;61.13;101415.91;1734112;80;21109;-60
2022/12/26 11:16:33;;;;;;;10.78;4.20;;;;;;;3.70;61.11;101409.58;1721688;81;21181;-60
2022/12/26 11:19:00;;;;;;;10.23;4.62;;;;;;;3.66;61.35;101414.02;1689913;83;21143;-62
2022/12/26 11:21:30;;;;;;;13.75;9.48;;;;;;;3.65;61.43;101409.73;1695401;82;21564;-61
2022/12/26 11:24:18;;;;;;;12.40;8.73;;;;;;;3.64;61.40;101408.02;1696998;82;21037;-61
2022/12/26 11:26:45;;;;;;;8.63;4.20;;;;;;;3.63;61.58;101405.05;1699402;84;21064;-61
2022/12/26 11:29:20;;;;;;;9.65;4.83;;;;;;;3.61;61.51;101400.31;1699059;83;21092;-62
2022/12/26 11:31:57;;;;;;;8.10;3.17;;;;;;;3.56;61.73;101394.88;1699281;84;21306;-62
2022/12/26 11:34:44;;;;;;;8.35;4.17;;;;;;;3.53;61.85;101388.02;1695705;84;21127;-62
2022/12/26 11:37:11;;;;;;;7.12;3.75;;;;;;;3.50;61.94;101382.48;1677241;83;21107;-59
2022/12/26 11:39:38;;;;;;;10.75;4.33;;;;;;;3.50;62.02;101379.88;1660483;85;21084;-60
2022/12/26 11:42:10;;;;;;;9.23;3.70;;;;;;;3.52;61.98;101372.86;1753260;80;21059;-62
2022/12/26 11:44:40;;;;;;;12.33;7.62;;;;;;;3.54;61.98;101373.66;1740604;81;21893;-62
2022/12/26 11:47:16;;;;;;;8.18;3.72;;;;;;;3.57;62.00;101374.47;1739729;82;21027;-62
2022/12/26 11:50:01;;;;;;;;;;;;;;;3.58;62.02;101371.82;1746382;82;21673;-62
2022/12/26 11:52:51;;;;;;;9.28;3.35;;;;;;;3.59;61.85;101376.56;1737775;82;20170;-62
2022/12/26 11:55:32;;;;;;;8.83;4.08;;;;;;;3.57;61.82;101380.52;1747950;80;21070;-59
2022/12/26 11:58:20;;;;;;;6.25;2.62;;;;;;;3.53;61.76;101383.69;1750158;81;21056;-60
2022/12/26 12:01:02;;;;;;;8.55;3.72;;;;;;;3.52;61.74;101383.73;1747499;80;21070;-60
2022/12/26 12:03:42;;;;;;;9.13;4.50;;;;;;;3.49;61.77;101376.87;1741845;82;21038;-60
2022/12/26 12:06:35;;;;;;;9.45;4.30;;;;;;;3.49;61.84;101369.52;1746493;82;21416;-61
2022/12/26 12:09:29;;;;;;;10.18;4.20;;;;;;;3.48;61.87;101378.22;1746645;82;21540;-60
2022/12/26 12:12:21;;;;;;;7.72;3.87;;;;;;;3.47;61.97;101373.48;1741125;81;21576;-60
2022/12/26 12:15:09;;;;;;;8.30;4.72;;;;;;;3.49;61.77;101377.33;1744599;80;21102;-60
2022/12/26 12:18:00;;;;;;;7.87;4.40;;;;;;;3.43;61.92;101378.41;1746769;81;21165;-60
2022/12/26 12:21:11;;;;;;;9.78;4.90;;;;;;;3.42;61.98;101374.09;1752658;81;21043;-60
2022/12/26 12:23:55;;;;;;;13.28;4.95;;;;;;;3.43;62.03;101378.41;1668543;84;21094;-60
2022/12/26 12:26:59;;;;;;;10.08;5.42;;;;;;;3.41;61.91;101384.09;1744797;81;21613;-60
2022/12/26 12:29:37;;;;;;;10.68;4.95;;;;;;;3.36;61.81;101386.00;1749515;81;21039;-60
2022/12/26 12:32:18;;;;;;;11.45;5.42;;;;;;;3.37;61.93;101385.56;1736369;81;21513;-60
2022/12/26 12:35:02;;;;;;;12.10;9.00;;;;;;;3.35;61.98;101388.22;1748411;81;21032;-60
2022/12/26 12:37:59;;;;;;;9.53;4.10;;;;;;;3.38;61.98;101393.32;1744321;81;21036;-60
2022/12/26 12:40:53;;;;;;;10.05;4.70;;;;;;;3.42;61.91;101391.46;1755359;81;21301;-61
2022/12/26 12:43:37;;;;;;;15.78;9.75;;;;;;;3.43;61.72;101384.91;1755151;81;21036;-60
2022/12/26 12:46:51;;;;;;;13.53;9.85;;;;;;;3.42;61.75;101380.59;1759325;81;21074;-60
2022/12/26 12:49:53;;;;;;;9.28;4.70;;;;;;;3.44;61.72;101364.47;1755044;81;21090;-60
2022/12/26 12:53:10;;;;;;;10.58;4.75;;;;;;;3.43;61.70;101367.12;1757427;81;21049;-60
2022/12/26 12:55:51;;;;;;;8.98;4.28;;;;;;;3.38;61.69;101363.41;1756569;81;21163;-61
2022/12/26 12:58:26;;;;;;;9.68;5.03;;;;;;;3.33;61.96;101367.45;1734813;80;21049;-61
2022/12/26 13:01:12;;;;;;;8.15;4.12;;;;;;;3.35;62.04;101363.50;1761157;81;21094;-61
2022/12/26 13:04:11;;;;;;;10.15;4.80;;;;;;;3.33;62.02;101372.66;1757408;81;21027;-61
2022/12/26 13:06:46;;;;;;;13.38;5.80;;;;;;;3.33;62.06;101367.45;1753804;81;21830;-62
2022/12/26 13:09:24;;;;;;;14.07;6.30;;;;;;;3.30;62.19;101364.11;1733874;81;21186;-61
2022/12/26 13:11:59;;;;;;;15.08;5.60;;;;;;;3.27;62.17;101361.15;1743439;81;21129;-62
2022/12/26 13:14:50;;;;;;;13.35;6.20;;;;;;;3.23;62.14;101359.56;1746385;81;21090;-62
2022/12/26 13:17:34;;;;;;;11.55;5.58;;;;;;;3.20;62.28;101357.06;1748921;81;21092;-62
2022/12/26 13:20:21;;;;;;;12.78;6.28;;;;;;;3.16;62.41;101351.12;1739688;80;21151;-60
2022/12/26 13:25:48;;;;;;;10.70;5.20;;;;;;;3.14;62.65;101342.52;1738866;82;21086;-61
2022/12/26 13:28:24;;;;;;;12.82;5.95;;;;;;;3.12;62.69;101336.50;1737559;80;21033;-61
2022/12/26 13:30:54;;;;;;;11.45;4.78;;;;;;;3.11;62.77;101330.05;1736460;82;20976;-61
2022/12/26 13:33:20;;;;;;;28.32;6.53;;;;;;;3.07;62.76;101334.51;1742039;80;21008;-61
2022/12/26 13:36:02;;;;;;;14.80;10.75;;;;;;;3.02;62.95;101335.11;1706042;83;21896;-61
2022/12/26 13:39:01;;;;;;;11.63;5.62;;;;;;;3.02;62.99;101331.21;1740408;82;21047;-60
2022/12/26 13:44:24;;;;;;;11.35;4.40;;;;;;;2.96;63.03;101324.48;1742897;81;21005;-60
2022/12/26 13:46:55;;;;;;;8.40;3.70;;;;;;;3.01;62.96;101324.33;1741615;82;21097;-60
2022/12/26 13:49:38;;;;;;;12.85;9.35;;;;;;;3.05;62.98;101315.98;1736273;80;21105;-61
2022/12/26 13:53:29;;;;;;;9.45;4.58;;;;;;;2.96;63.74;101317.14;1792938;78;22846;-60
2022/12/26 13:56:01;;;;;;;9.10;4.30;;;;;;;3.10;63.28;101314.91;1759495;80;21053;-61
2022/12/26 13:58:57;;;;;;;11.10;5.58;;;;;;;3.11;63.23;101307.95;1774038;80;21280;-60
2022/12/26 14:02:03;;;;;;;10.48;5.05;;;;;;;3.05;63.32;101304.27;1766766;80;21034;-61
2022/12/26 14:05:15;;;;;;;12.98;5.15;;;;;;;2.98;63.30;101312.73;1767550;80;21007;-61
2022/12/26 14:08:06;;;;;;;13.65;5.28;;;;;;;2.92;63.38;101320.72;1762940;80;21360;-61
2022/12/26 14:10:44;;;;;;;10.72;4.75;;;;;;;2.85;63.53;101317.48;1773839;80;20987;-61
2022/12/26 14:13:42;;;;;;;8.33;4.50;;;;;;;2.82;63.61;101314.13;1765985;80;21301;-61
2022/12/26 14:16:36;;;;;;;8.83;4.47;;;;;;;2.77;63.65;101312.55;1766917;80;21122;-61
2022/12/26 14:19:17;;;;;;;11.00;4.53;;;;;;;2.74;63.63;101289.25;1694670;83;21075;-61
2022/12/26 14:22:15;;;;;;;9.58;4.37;;;;;;;2.80;63.59;101295.98;1769390;80;22223;-60
2022/12/26 14:25:05;;;;;;;11.57;4.67;;;;;;;2.73;63.71;101288.84;1765812;80;21027;-61
2022/12/26 14:27:43;;;;;;;11.30;5.65;;;;;;;2.67;64.06;101285.13;1763362;80;21156;-61
2022/12/26 14:30:52;;;;;;;10.23;4.67;;;;;;;2.67;64.09;101282.53;1766301;80;21077;-61
2022/12/26 14:33:40;;;;;;;9.58;4.47;;;;;;;2.67;64.13;101289.48;1772057;80;21018;-62
2022/12/26 14:36:30;;;;;;;11.83;5.78;;;;;;;2.71;64.32;101288.50;1763273;80;21039;-61
2022/12/26 14:39:21;;;;;;;10.82;6.05;;;;;;;2.69;64.13;101287.25;1769874;80;21003;-61
2022/12/26 14:44:58;;;;;;;8.25;3.75;;;;;;;2.66;64.20;101293.84;1774854;80;21094;-61
2022/12/26 14:47:45;;;;;;;9.18;3.58;;;;;;;2.65;64.33;101288.70;1770554;80;21050;-60
2022/12/26 14:50:49;;;;;;;6.58;2.60;;;;;;;2.64;64.29;101297.38;1767234;80;21073;-60
2022/12/26 14:53:32;;;;;;;8.23;3.20;;;;;;;2.62;64.22;101290.09;1754549;80;21114;-60
2022/12/26 14:56:13;;;;;;;9.63;3.67;;;;;;;2.57;64.28;101275.94;1720276;82;21568;-60
2022/12/26 14:58:49;;;;;;;7.80;3.58;;;;;;;2.55;64.35;101275.14;1750780;80;21048;-61
2022/12/26 15:01:27;;;;;;;9.87;2.90;;;;;;;2.50;64.47;101277.05;1750596;80;21034;-61
2022/12/26 15:04:12;;;;;;;8.33;3.67;;;;;;;2.50;64.52;101282.23;1751451;80;21848;-61
2022/12/26 15:07:37;;;;;;;8.13;4.00;;;;;;;2.48;64.68;101280.98;1750354;80;21062;-62
2022/12/26 15:10:50;;;;;;;6.65;2.75;;;;;;;2.48;64.76;101270.59;1755021;80;21267;-61
2022/12/26 15:13:59;;;;;;;7.80;3.35;;;;;;;2.49;64.85;101270.13;1753369;80;21098;-62
2022/12/26 15:17:00;;;;;;;7.33;3.33;;;;;;;2.52;64.97;101269.61;1752109;80;21701;-62
2022/12/26 15:19:55;;;;;;;7.30;2.98;;;;;;;2.51;64.75;101265.77;1747160;80;21086;-61
2022/12/26 15:23:01;;;;;;;8.60;3.33;;;;;;;2.44;64.77;101269.01;1762409;80;21043;-62
2022/12/26 15:25:56;;;;;;;6.08;2.52;;;;;;;2.41;64.83;101262.15;1751233;80;21334;-62
2022/12/26 15:28:36;;;;;;;6.97;2.67;;;;;;;2.45;64.83;101256.40;1757793;80;21675;-62
2022/12/26 15:31:28;;;;;;;7.30;2.92;;;;;;;2.51;64.83;101241.92;1749741;80;21090;-64
2022/12/26 15:34:11;;;;;;;7.08;3.27;;;;;;;2.56;64.78;101237.88;1752593;80;21576;-62
2022/12/26 15:37:29;;;;;;;6.75;2.67;;;;;;;2.55;64.85;101236.17;1746165;80;21065;-62
2022/12/26 15:40:15;;;;;;;7.25;3.40;;;;;;;2.53;65.05;101223.23;1754155;80;21166;-60
2022/12/26 15:43:17;;;;;;;;;;;;;;;2.57;65.04;101200.59;1749153;80;21005;-61
2022/12/26 15:45:48;;;;;;;6.70;2.35;;;;;;;2.54;64.85;101200.69;1756835;80;20482;-61
2022/12/26 15:49:03;;;;;;;5.90;2.87;;;;;;;2.47;64.88;101183.61;1749775;80;21100;-61
2022/12/26 15:51:57;;;;;;;6.37;2.67;;;;;;;2.44;64.79;101175.48;1753203;80;21023;-61
2022/12/26 15:54:56;;;;;;;8.78;3.35;;;;;;;2.39;64.96;101169.60;1754846;80;21534;-61
2022/12/26 15:57:46;;;;;;;7.17;3.10;;;;;;;2.37;64.87;101167.48;1754592;80;21042;-61
2022/12/26 16:00:31;;;;;;;9.03;3.60;;;;;;;2.34;65.11;101178.00;1757098;80;21094;-61
2022/12/26 16:03:34;;;;;;;7.35;2.87;;;;;;;2.35;65.10;101176.62;1758107;80;21054;-61
2022/12/26 16:06:32;;;;;;;9.40;3.70;;;;;;;2.36;65.21;101174.89;1750111;80;21520;-61
2022/12/26 16:09:35;;;;;;;8.20;3.47;;;;;;;2.36;65.38;101188.72;1747935;80;21747;-61
2022/12/26 16:12:04;;;;;;;8.65;4.05;;;;;;;2.40;65.36;101195.53;1754583;80;21481;-61
2022/12/26 16:14:34;;;;;;;10.68;4.30;;;;;;;2.40;65.37;101203.75;1750475;80;20980;-61
2022/12/26 16:17:17;;;;;;;9.43;4.87;;;;;;;2.43;65.46;101211.91;1752719;80;21154;-61
2022/12/26 16:19:47;;;;;;;9.43;3.40;;;;;;;2.43;65.56;101213.20;1744202;80;22226;-61
2022/12/26 16:25:20;;;;;;;9.38;4.28;;;;;;;2.48;65.64;101230.78;1752713;80;21042;-60
2022/12/26 16:27:48;;;;;;;9.35;4.30;;;;;;;2.51;65.58;101209.91;1756127;80;21087;-62
2022/12/26 16:30:20;;;;;;;10.93;5.05;;;;;;;2.50;65.57;101193.45;1755162;80;21098;-62
2022/12/26 16:32:46;;;;;;;9.40;5.08;;;;;;;2.55;65.54;101201.09;1748978;80;21057;-60
2022/12/26 16:35:35;;;;;;;6.95;3.35;;;;;;;2.56;65.55;101206.70;1748610;80;21122;-60
2022/12/26 16:38:04;;;;;;;8.10;4.03;;;;;;;2.56;65.42;101216.64;1749482;80;21060;-62
2022/12/26 16:40:42;;;;;;;13.18;8.90;;;;;;;2.56;65.43;101245.68;1759292;80;21034;-61